SBNT/NAT METAR and TAF weather

Enter ICAO airport designator
Station Type Date Time Source
SBNT METAR 2019/04/25 08:00 UTC NOAA

SBNT 250800Z 19006KT 5000 -RA BKN017 SCT070 25/24 Q1012


Station Type Date Time Source
SBNT Decoded METAR 2019/04/25 08:00 UTC NOAA

Natal Aeroporto, Brazil (SBNT) 05-55S 035-15W 49M
Apr 25, 2019 - 04:00 AM EDT / 2019.04.25 0800 UTC
Wind: from the S (190 degrees) at 7 MPH (6 KT):0
Visibility: 3 mile(s):0
Sky conditions: mostly cloudy
Weather: light rain
Temperature: 77 F (25 C)
Dew Point: 75 F (24 C)
Relative Humidity: 94%
Pressure (altimeter): 29.88 in. Hg (1012 hPa)
ob: SBNT 250800Z 19006KT 5000 -RA BKN017 SCT070 25/24 Q1012
cycle: 8

Station Type Date Time Source
SBNT TAF 2019/04/25 06:15 UTC NOAA

TAF SBNT 250400Z 2506/2606 19005KT 9999 FEW017 TN25/2507Z TX31/2516Z
BECMG 2509/2511 SCT020 FEW025TCU
BECMG 2514/2516 18009KT SCT020
BECMG 2521/2523 16008KT 6000 SHRA BKN0 20 FEW025TCU
BECMG 2600/2602 16005KT
RMK PAY

Example: see airport list